sensor_id;sensor_type;location;lat;lon;timestamp;P1;durP1;ratioP1;P2;durP2;ratioP2
32365;SDS011;18837;46.832;16.838;2023-05-10T00:01:25;3.30;;;3.00;;
32365;SDS011;18837;46.832;16.838;2023-05-10T00:03:50;3.00;;;2.70;;
32365;SDS011;18837;46.832;16.838;2023-05-10T00:06:16;2.87;;;2.57;;
32365;SDS011;18837;46.832;16.838;2023-05-10T00:08:42;2.87;;;2.60;;
32365;SDS011;18837;46.832;16.838;2023-05-10T00:11:10;2.80;;;2.57;;
32365;SDS011;18837;46.832;16.838;2023-05-10T00:13:41;3.90;;;2.73;;
32365;SDS011;18837;46.832;16.838;2023-05-10T00:16:06;2.90;;;2.50;;
32365;SDS011;18837;46.832;16.838;2023-05-10T00:18:35;3.17;;;2.57;;
32365;SDS011;18837;46.832;16.838;2023-05-10T00:21:01;3.70;;;2.77;;
32365;SDS011;18837;46.832;16.838;2023-05-10T00:23:27;2.73;;;2.37;;
32365;SDS011;18837;46.832;16.838;2023-05-10T00:25:52;3.93;;;2.70;;
32365;SDS011;18837;46.832;16.838;2023-05-10T00:28:18;3.00;;;2.70;;
32365;SDS011;18837;46.832;16.838;2023-05-10T00:30:44;3.70;;;2.40;;
32365;SDS011;18837;46.832;16.838;2023-05-10T00:33:13;2.47;;;2.23;;
32365;SDS011;18837;46.832;16.838;2023-05-10T00:35:38;2.87;;;2.47;;
32365;SDS011;18837;46.832;16.838;2023-05-10T00:38:04;3.13;;;2.40;;
32365;SDS011;18837;46.832;16.838;2023-05-10T00:40:30;2.43;;;2.23;;
32365;SDS011;18837;46.832;16.838;2023-05-10T00:42:56;2.80;;;2.40;;
32365;SDS011;18837;46.832;16.838;2023-05-10T00:45:22;3.63;;;2.47;;
32365;SDS011;18837;46.832;16.838;2023-05-10T00:47:48;3.60;;;2.40;;
32365;SDS011;18837;46.832;16.838;2023-05-10T00:50:17;2.50;;;2.30;;
32365;SDS011;18837;46.832;16.838;2023-05-10T00:52:43;3.73;;;2.10;;
32365;SDS011;18837;46.832;16.838;2023-05-10T00:55:09;3.20;;;2.40;;
32365;SDS011;18837;46.832;16.838;2023-05-10T00:57:36;2.50;;;2.10;;
32365;SDS011;18837;46.832;16.838;2023-05-10T01:00:02;2.93;;;2.30;;
32365;SDS011;18837;46.832;16.838;2023-05-10T01:02:28;2.43;;;2.23;;
32365;SDS011;18837;46.832;16.838;2023-05-10T01:04:54;2.60;;;2.27;;
32365;SDS011;18837;46.832;16.838;2023-05-10T01:07:21;3.60;;;1.90;;
32365;SDS011;18837;46.832;16.838;2023-05-10T01:09:47;3.57;;;2.13;;
32365;SDS011;18837;46.832;16.838;2023-05-10T01:12:13;2.40;;;2.20;;
32365;SDS011;18837;46.832;16.838;2023-05-10T01:14:38;2.33;;;2.13;;
32365;SDS011;18837;46.832;16.838;2023-05-10T01:17:05;2.90;;;2.10;;
32365;SDS011;18837;46.832;16.838;2023-05-10T01:19:32;2.10;;;1.90;;
32365;SDS011;18837;46.832;16.838;2023-05-10T01:30:50;2.20;;;1.93;;
32365;SDS011;18837;46.832;16.838;2023-05-10T01:36:45;2.20;;;2.00;;
32365;SDS011;18837;46.832;16.838;2023-05-10T01:39:24;3.53;;;2.10;;
32365;SDS011;18837;46.832;16.838;2023-05-10T01:44:35;3.63;;;2.20;;
32365;SDS011;18837;46.832;16.838;2023-05-10T01:47:31;2.23;;;2.03;;
32365;SDS011;18837;46.832;16.838;2023-05-10T01:50:29;2.20;;;2.00;;
32365;SDS011;18837;46.832;16.838;2023-05-10T01:52:56;2.10;;;1.87;;
32365;SDS011;18837;46.832;16.838;2023-05-10T01:55:25;2.40;;;1.90;;
32365;SDS011;18837;46.832;16.838;2023-05-10T01:57:56;2.67;;;2.07;;
32365;SDS011;18837;46.832;16.838;2023-05-10T02:00:30;2.60;;;1.93;;
32365;SDS011;18837;46.832;16.838;2023-05-10T02:02:56;2.87;;;2.07;;
32365;SDS011;18837;46.832;16.838;2023-05-10T02:05:23;3.30;;;2.20;;
32365;SDS011;18837;46.832;16.838;2023-05-10T02:07:50;2.20;;;2.00;;
32365;SDS011;18837;46.832;16.838;2023-05-10T02:10:17;1.90;;;1.80;;
32365;SDS011;18837;46.832;16.838;2023-05-10T02:12:45;2.47;;;2.13;;
32365;SDS011;18837;46.832;16.838;2023-05-10T02:15:15;3.70;;;2.30;;
32365;SDS011;18837;46.832;16.838;2023-05-10T02:17:46;2.93;;;2.40;;
32365;SDS011;18837;46.832;16.838;2023-05-10T02:20:12;2.23;;;2.00;;
32365;SDS011;18837;46.832;16.838;2023-05-10T02:22:40;2.37;;;2.00;;
32365;SDS011;18837;46.832;16.838;2023-05-10T02:25:08;2.20;;;1.90;;
32365;SDS011;18837;46.832;16.838;2023-05-10T02:27:35;2.10;;;1.97;;
32365;SDS011;18837;46.832;16.838;2023-05-10T02:30:02;2.57;;;2.33;;
32365;SDS011;18837;46.832;16.838;2023-05-10T02:32:30;2.43;;;2.03;;
32365;SDS011;18837;46.832;16.838;2023-05-10T02:34:57;2.23;;;2.00;;
32365;SDS011;18837;46.832;16.838;2023-05-10T02:37:25;3.43;;;2.00;;
32365;SDS011;18837;46.832;16.838;2023-05-10T02:39:52;2.40;;;2.20;;
32365;SDS011;18837;46.832;16.838;2023-05-10T02:42:21;3.60;;;2.13;;
32365;SDS011;18837;46.832;16.838;2023-05-10T02:44:51;4.17;;;2.23;;
32365;SDS011;18837;46.832;16.838;2023-05-10T02:47:19;2.43;;;2.13;;
32365;SDS011;18837;46.832;16.838;2023-05-10T02:49:45;2.60;;;2.17;;
32365;SDS011;18837;46.832;16.838;2023-05-10T02:52:19;2.80;;;1.93;;
32365;SDS011;18837;46.832;16.838;2023-05-10T02:54:50;2.30;;;2.10;;
32365;SDS011;18837;46.832;16.838;2023-05-10T02:57:22;2.30;;;2.10;;
32365;SDS011;18837;46.832;16.838;2023-05-10T02:59:54;2.50;;;2.30;;
32365;SDS011;18837;46.832;16.838;2023-05-10T03:02:20;2.20;;;2.00;;
32365;SDS011;18837;46.832;16.838;2023-05-10T03:04:46;2.57;;;2.20;;
32365;SDS011;18837;46.832;16.838;2023-05-10T03:07:12;2.40;;;2.20;;
32365;SDS011;18837;46.832;16.838;2023-05-10T03:09:41;2.50;;;2.30;;
32365;SDS011;18837;46.832;16.838;2023-05-10T03:20:05;3.00;;;2.70;;
32365;SDS011;18837;46.832;16.838;2023-05-10T03:22:45;2.53;;;2.33;;
32365;SDS011;18837;46.832;16.838;2023-05-10T03:25:15;3.50;;;2.60;;
32365;SDS011;18837;46.832;16.838;2023-05-10T03:27:42;4.40;;;2.37;;
32365;SDS011;18837;46.832;16.838;2023-05-10T03:30:10;2.80;;;2.40;;
32365;SDS011;18837;46.832;16.838;2023-05-10T03:32:37;3.37;;;2.67;;
32365;SDS011;18837;46.832;16.838;2023-05-10T03:35:10;4.20;;;2.63;;
32365;SDS011;18837;46.832;16.838;2023-05-10T03:37:38;3.70;;;3.13;;
32365;SDS011;18837;46.832;16.838;2023-05-10T03:40:04;3.20;;;2.90;;
32365;SDS011;18837;46.832;16.838;2023-05-10T03:42:30;3.40;;;3.10;;
32365;SDS011;18837;46.832;16.838;2023-05-10T03:45:01;3.40;;;2.60;;
32365;SDS011;18837;46.832;16.838;2023-05-10T03:47:27;3.30;;;2.73;;
32365;SDS011;18837;46.832;16.838;2023-05-10T03:49:54;3.97;;;2.60;;
32365;SDS011;18837;46.832;16.838;2023-05-10T03:52:20;2.80;;;2.60;;
32365;SDS011;18837;46.832;16.838;2023-05-10T03:54:46;2.97;;;2.70;;
32365;SDS011;18837;46.832;16.838;2023-05-10T03:57:11;3.10;;;2.80;;
32365;SDS011;18837;46.832;16.838;2023-05-10T03:59:37;3.30;;;2.67;;
32365;SDS011;18837;46.832;16.838;2023-05-10T04:02:03;3.23;;;2.67;;
32365;SDS011;18837;46.832;16.838;2023-05-10T04:04:28;3.87;;;3.03;;
32365;SDS011;18837;46.832;16.838;2023-05-10T04:06:54;2.97;;;2.77;;
32365;SDS011;18837;46.832;16.838;2023-05-10T04:09:20;4.10;;;2.53;;
32365;SDS011;18837;46.832;16.838;2023-05-10T04:11:46;3.40;;;2.50;;
32365;SDS011;18837;46.832;16.838;2023-05-10T04:14:11;3.17;;;2.63;;
32365;SDS011;18837;46.832;16.838;2023-05-10T04:16:40;3.90;;;3.20;;
32365;SDS011;18837;46.832;16.838;2023-05-10T04:19:07;3.30;;;3.00;;
32365;SDS011;18837;46.832;16.838;2023-05-10T04:21:33;3.83;;;2.83;;
32365;SDS011;18837;46.832;16.838;2023-05-10T04:23:58;3.47;;;2.77;;
32365;SDS011;18837;46.832;16.838;2023-05-10T04:26:25;4.37;;;2.90;;
32365;SDS011;18837;46.832;16.838;2023-05-10T04:28:50;3.47;;;2.93;;
32365;SDS011;18837;46.832;16.838;2023-05-10T04:31:16;2.93;;;2.70;;
32365;SDS011;18837;46.832;16.838;2023-05-10T04:33:42;2.90;;;2.60;;
32365;SDS011;18837;46.832;16.838;2023-05-10T04:36:08;3.40;;;2.83;;
32365;SDS011;18837;46.832;16.838;2023-05-10T04:38:33;4.83;;;2.83;;
32365;SDS011;18837;46.832;16.838;2023-05-10T04:41:09;3.10;;;2.90;;
32365;SDS011;18837;46.832;16.838;2023-05-10T04:43:36;3.33;;;2.60;;
32365;SDS011;18837;46.832;16.838;2023-05-10T04:46:03;4.03;;;2.60;;
32365;SDS011;18837;46.832;16.838;2023-05-10T04:48:29;3.87;;;3.20;;
32365;SDS011;18837;46.832;16.838;2023-05-10T04:51:01;4.80;;;3.20;;
32365;SDS011;18837;46.832;16.838;2023-05-10T04:53:30;3.30;;;2.90;;
32365;SDS011;18837;46.832;16.838;2023-05-10T04:55:55;3.40;;;3.10;;
32365;SDS011;18837;46.832;16.838;2023-05-10T04:58:21;3.50;;;3.20;;
32365;SDS011;18837;46.832;16.838;2023-05-10T05:00:47;4.40;;;3.20;;
32365;SDS011;18837;46.832;16.838;2023-05-10T05:03:13;5.07;;;3.30;;
32365;SDS011;18837;46.832;16.838;2023-05-10T05:05:38;4.57;;;3.00;;
32365;SDS011;18837;46.832;16.838;2023-05-10T05:08:04;4.13;;;3.20;;
32365;SDS011;18837;46.832;16.838;2023-05-10T05:10:30;3.53;;;3.23;;
32365;SDS011;18837;46.832;16.838;2023-05-10T05:12:56;4.23;;;3.00;;
32365;SDS011;18837;46.832;16.838;2023-05-10T05:15:21;3.10;;;2.80;;
32365;SDS011;18837;46.832;16.838;2023-05-10T05:17:47;4.20;;;3.30;;
32365;SDS011;18837;46.832;16.838;2023-05-10T05:20:13;3.60;;;3.30;;
32365;SDS011;18837;46.832;16.838;2023-05-10T05:22:39;5.03;;;3.47;;
32365;SDS011;18837;46.832;16.838;2023-05-10T05:25:06;3.53;;;3.17;;
32365;SDS011;18837;46.832;16.838;2023-05-10T05:27:34;3.37;;;3.07;;
32365;SDS011;18837;46.832;16.838;2023-05-10T05:29:59;3.50;;;3.20;;
32365;SDS011;18837;46.832;16.838;2023-05-10T05:32:25;3.97;;;3.50;;
32365;SDS011;18837;46.832;16.838;2023-05-10T05:34:51;3.30;;;3.00;;
32365;SDS011;18837;46.832;16.838;2023-05-10T05:37:17;28.33;;;5.87;;
32365;SDS011;18837;46.832;16.838;2023-05-10T05:39:45;9.60;;;5.50;;
32365;SDS011;18837;46.832;16.838;2023-05-10T05:42:11;18.00;;;5.40;;
32365;SDS011;18837;46.832;16.838;2023-05-10T05:44:38;10.30;;;4.43;;
32365;SDS011;18837;46.832;16.838;2023-05-10T05:47:04;9.60;;;4.83;;
32365;SDS011;18837;46.832;16.838;2023-05-10T05:49:31;12.77;;;4.10;;
32365;SDS011;18837;46.832;16.838;2023-05-10T05:52:03;13.37;;;4.73;;
32365;SDS011;18837;46.832;16.838;2023-05-10T05:54:29;8.90;;;4.40;;
32365;SDS011;18837;46.832;16.838;2023-05-10T05:56:56;9.03;;;4.37;;
32365;SDS011;18837;46.832;16.838;2023-05-10T05:59:35;8.50;;;4.40;;
32365;SDS011;18837;46.832;16.838;2023-05-10T06:02:01;7.80;;;4.37;;
32365;SDS011;18837;46.832;16.838;2023-05-10T06:04:33;5.47;;;3.77;;
32365;SDS011;18837;46.832;16.838;2023-05-10T06:06:58;6.30;;;4.20;;
32365;SDS011;18837;46.832;16.838;2023-05-10T06:09:24;5.20;;;4.13;;
32365;SDS011;18837;46.832;16.838;2023-05-10T06:11:50;5.20;;;3.67;;
32365;SDS011;18837;46.832;16.838;2023-05-10T06:14:15;24.87;;;7.77;;
32365;SDS011;18837;46.832;16.838;2023-05-10T06:16:41;15.27;;;7.20;;
32365;SDS011;18837;46.832;16.838;2023-05-10T06:19:07;10.97;;;5.50;;
32365;SDS011;18837;46.832;16.838;2023-05-10T06:21:33;9.47;;;4.60;;
32365;SDS011;18837;46.832;16.838;2023-05-10T06:23:59;7.73;;;5.60;;
32365;SDS011;18837;46.832;16.838;2023-05-10T06:26:24;11.67;;;5.17;;
32365;SDS011;18837;46.832;16.838;2023-05-10T06:28:50;8.13;;;5.40;;
32365;SDS011;18837;46.832;16.838;2023-05-10T06:31:16;8.10;;;4.90;;
32365;SDS011;18837;46.832;16.838;2023-05-10T06:33:42;6.40;;;4.30;;
32365;SDS011;18837;46.832;16.838;2023-05-10T06:38:57;8.00;;;4.70;;
32365;SDS011;18837;46.832;16.838;2023-05-10T06:41:23;6.33;;;4.27;;
32365;SDS011;18837;46.832;16.838;2023-05-10T06:43:49;6.13;;;4.13;;
32365;SDS011;18837;46.832;16.838;2023-05-10T06:46:14;8.73;;;4.90;;
32365;SDS011;18837;46.832;16.838;2023-05-10T06:48:40;4.97;;;4.47;;
32365;SDS011;18837;46.832;16.838;2023-05-10T06:51:06;7.67;;;4.30;;
32365;SDS011;18837;46.832;16.838;2023-05-10T06:53:32;4.30;;;3.57;;
32365;SDS011;18837;46.832;16.838;2023-05-10T06:55:58;6.40;;;4.13;;
32365;SDS011;18837;46.832;16.838;2023-05-10T06:58:24;5.43;;;3.87;;
32365;SDS011;18837;46.832;16.838;2023-05-10T07:00:50;5.30;;;3.73;;
32365;SDS011;18837;46.832;16.838;2023-05-10T07:03:15;5.60;;;4.10;;
32365;SDS011;18837;46.832;16.838;2023-05-10T07:05:41;7.13;;;3.70;;
32365;SDS011;18837;46.832;16.838;2023-05-10T07:08:13;4.90;;;3.70;;
32365;SDS011;18837;46.832;16.838;2023-05-10T07:10:59;4.80;;;4.30;;
32365;SDS011;18837;46.832;16.838;2023-05-10T07:13:34;4.43;;;3.53;;
32365;SDS011;18837;46.832;16.838;2023-05-10T07:16:01;4.13;;;3.37;;
32365;SDS011;18837;46.832;16.838;2023-05-10T07:18:30;5.17;;;3.43;;
32365;SDS011;18837;46.832;16.838;2023-05-10T07:20:56;5.07;;;3.30;;
32365;SDS011;18837;46.832;16.838;2023-05-10T07:23:22;6.57;;;3.13;;
32365;SDS011;18837;46.832;16.838;2023-05-10T07:25:48;4.97;;;3.13;;
32365;SDS011;18837;46.832;16.838;2023-05-10T07:28:21;5.17;;;3.23;;
32365;SDS011;18837;46.832;16.838;2023-05-10T07:30:47;5.87;;;2.83;;
32365;SDS011;18837;46.832;16.838;2023-05-10T07:33:13;5.07;;;2.97;;
32365;SDS011;18837;46.832;16.838;2023-05-10T07:35:39;5.07;;;3.20;;
32365;SDS011;18837;46.832;16.838;2023-05-10T07:38:05;3.83;;;3.10;;
32365;SDS011;18837;46.832;16.838;2023-05-10T07:40:31;3.27;;;2.80;;
32365;SDS011;18837;46.832;16.838;2023-05-10T07:43:02;4.47;;;3.10;;
32365;SDS011;18837;46.832;16.838;2023-05-10T07:45:33;3.70;;;2.80;;
32365;SDS011;18837;46.832;16.838;2023-05-10T07:48:00;3.03;;;2.73;;
32365;SDS011;18837;46.832;16.838;2023-05-10T07:50:26;3.73;;;2.63;;
32365;SDS011;18837;46.832;16.838;2023-05-10T07:52:51;3.40;;;2.47;;
32365;SDS011;18837;46.832;16.838;2023-05-10T07:55:18;3.70;;;2.47;;
32365;SDS011;18837;46.832;16.838;2023-05-10T07:57:44;2.63;;;2.43;;
32365;SDS011;18837;46.832;16.838;2023-05-10T08:00:12;2.60;;;2.40;;
32365;SDS011;18837;46.832;16.838;2023-05-10T08:02:43;2.50;;;2.30;;
32365;SDS011;18837;46.832;16.838;2023-05-10T08:05:09;2.43;;;2.20;;
32365;SDS011;18837;46.832;16.838;2023-05-10T08:07:35;3.33;;;2.13;;
32365;SDS011;18837;46.832;16.838;2023-05-10T08:10:01;2.10;;;1.87;;
32365;SDS011;18837;46.832;16.838;2023-05-10T08:12:28;2.20;;;2.00;;
32365;SDS011;18837;46.832;16.838;2023-05-10T08:14:53;2.57;;;2.37;;
32365;SDS011;18837;46.832;16.838;2023-05-10T08:17:37;2.27;;;2.07;;
32365;SDS011;18837;46.832;16.838;2023-05-10T08:20:15;3.37;;;2.50;;
32365;SDS011;18837;46.832;16.838;2023-05-10T08:22:55;2.40;;;2.17;;
32365;SDS011;18837;46.832;16.838;2023-05-10T08:25:21;2.10;;;1.90;;
32365;SDS011;18837;46.832;16.838;2023-05-10T08:27:47;2.20;;;1.90;;
32365;SDS011;18837;46.832;16.838;2023-05-10T08:30:12;2.40;;;2.00;;
32365;SDS011;18837;46.832;16.838;2023-05-10T08:32:38;2.63;;;2.40;;
32365;SDS011;18837;46.832;16.838;2023-05-10T08:35:04;2.70;;;2.43;;
32365;SDS011;18837;46.832;16.838;2023-05-10T08:37:35;2.67;;;2.47;;
32365;SDS011;18837;46.832;16.838;2023-05-10T08:40:01;2.77;;;2.10;;
32365;SDS011;18837;46.832;16.838;2023-05-10T08:42:28;2.10;;;1.90;;
32365;SDS011;18837;46.832;16.838;2023-05-10T08:44:56;2.10;;;1.90;;
32365;SDS011;18837;46.832;16.838;2023-05-10T08:47:22;3.00;;;2.10;;
32365;SDS011;18837;46.832;16.838;2023-05-10T08:49:49;2.10;;;1.93;;
32365;SDS011;18837;46.832;16.838;2023-05-10T08:57:55;2.80;;;2.03;;
32365;SDS011;18837;46.832;16.838;2023-05-10T09:00:21;2.37;;;2.17;;
32365;SDS011;18837;46.832;16.838;2023-05-10T09:02:48;2.13;;;1.80;;
32365;SDS011;18837;46.832;16.838;2023-05-10T09:05:15;2.27;;;2.07;;
32365;SDS011;18837;46.832;16.838;2023-05-10T09:07:42;2.20;;;2.00;;
32365;SDS011;18837;46.832;16.838;2023-05-10T09:10:08;2.97;;;2.50;;
32365;SDS011;18837;46.832;16.838;2023-05-10T09:12:35;2.33;;;2.13;;
32365;SDS011;18837;46.832;16.838;2023-05-10T09:15:02;2.53;;;2.00;;
32365;SDS011;18837;46.832;16.838;2023-05-10T09:17:30;1.97;;;1.87;;
32365;SDS011;18837;46.832;16.838;2023-05-10T09:20:00;2.17;;;1.97;;
32365;SDS011;18837;46.832;16.838;2023-05-10T09:22:27;2.10;;;1.90;;
32365;SDS011;18837;46.832;16.838;2023-05-10T09:25:05;2.40;;;2.20;;
32365;SDS011;18837;46.832;16.838;2023-05-10T09:30:17;2.20;;;2.00;;
32365;SDS011;18837;46.832;16.838;2023-05-10T09:32:52;3.53;;;2.80;;
32365;SDS011;18837;46.832;16.838;2023-05-10T09:35:20;9.27;;;3.90;;
32365;SDS011;18837;46.832;16.838;2023-05-10T09:37:51;11.37;;;6.03;;
32365;SDS011;18837;46.832;16.838;2023-05-10T09:40:20;5.90;;;3.30;;
32365;SDS011;18837;46.832;16.838;2023-05-10T09:42:54;6.90;;;4.17;;
32365;SDS011;18837;46.832;16.838;2023-05-10T09:46:10;8.17;;;4.67;;
32365;SDS011;18837;46.832;16.838;2023-05-10T09:48:43;7.93;;;4.60;;
32365;SDS011;18837;46.832;16.838;2023-05-10T09:51:18;5.33;;;3.87;;
32365;SDS011;18837;46.832;16.838;2023-05-10T09:53:45;9.23;;;4.30;;
32365;SDS011;18837;46.832;16.838;2023-05-10T09:56:11;5.87;;;3.53;;
32365;SDS011;18837;46.832;16.838;2023-05-10T09:58:37;6.73;;;3.63;;
32365;SDS011;18837;46.832;16.838;2023-05-10T10:03:42;4.57;;;3.43;;
32365;SDS011;18837;46.832;16.838;2023-05-10T10:06:08;5.67;;;3.47;;
32365;SDS011;18837;46.832;16.838;2023-05-10T10:08:34;6.63;;;3.37;;
32365;SDS011;18837;46.832;16.838;2023-05-10T10:11:00;3.07;;;2.70;;
32365;SDS011;18837;46.832;16.838;2023-05-10T10:13:26;4.90;;;3.03;;
32365;SDS011;18837;46.832;16.838;2023-05-10T10:16:01;4.13;;;2.77;;
32365;SDS011;18837;46.832;16.838;2023-05-10T10:21:33;4.90;;;3.40;;
32365;SDS011;18837;46.832;16.838;2023-05-10T10:23:59;5.40;;;2.90;;
32365;SDS011;18837;46.832;16.838;2023-05-10T10:26:26;3.53;;;2.97;;
32365;SDS011;18837;46.832;16.838;2023-05-10T10:34:32;5.03;;;3.03;;
32365;SDS011;18837;46.832;16.838;2023-05-10T10:36:59;3.70;;;2.50;;
32365;SDS011;18837;46.832;16.838;2023-05-10T10:39:29;4.10;;;2.70;;
32365;SDS011;18837;46.832;16.838;2023-05-10T10:41:57;4.20;;;2.80;;
32365;SDS011;18837;46.832;16.838;2023-05-10T10:55:31;2.80;;;2.50;;
32365;SDS011;18837;46.832;16.838;2023-05-10T10:58:09;2.93;;;2.47;;
32365;SDS011;18837;46.832;16.838;2023-05-10T11:00:36;3.97;;;2.50;;
32365;SDS011;18837;46.832;16.838;2023-05-10T11:03:07;3.20;;;2.87;;
32365;SDS011;18837;46.832;16.838;2023-05-10T11:05:36;3.33;;;3.00;;
32365;SDS011;18837;46.832;16.838;2023-05-10T11:10:51;2.77;;;2.57;;
32365;SDS011;18837;46.832;16.838;2023-05-10T11:18:56;4.10;;;2.70;;
32365;SDS011;18837;46.832;16.838;2023-05-10T11:21:30;3.30;;;3.00;;
32365;SDS011;18837;46.832;16.838;2023-05-10T11:23:58;3.20;;;2.90;;
32365;SDS011;18837;46.832;16.838;2023-05-10T11:26:37;2.63;;;2.40;;
32365;SDS011;18837;46.832;16.838;2023-05-10T11:29:18;3.00;;;2.70;;
32365;SDS011;18837;46.832;16.838;2023-05-10T11:31:45;2.67;;;2.30;;
32365;SDS011;18837;46.832;16.838;2023-05-10T11:34:33;3.23;;;2.73;;
32365;SDS011;18837;46.832;16.838;2023-05-10T11:36:59;3.10;;;2.90;;
32365;SDS011;18837;46.832;16.838;2023-05-10T11:39:25;2.77;;;2.57;;
32365;SDS011;18837;46.832;16.838;2023-05-10T11:41:52;4.67;;;2.40;;
32365;SDS011;18837;46.832;16.838;2023-05-10T11:44:51;2.67;;;2.47;;
32365;SDS011;18837;46.832;16.838;2023-05-10T11:47:10;3.83;;;2.50;;
32365;SDS011;18837;46.832;16.838;2023-05-10T11:49:37;2.60;;;2.40;;
32365;SDS011;18837;46.832;16.838;2023-05-10T11:52:04;2.47;;;2.27;;
32365;SDS011;18837;46.832;16.838;2023-05-10T11:54:33;2.57;;;2.37;;
32365;SDS011;18837;46.832;16.838;2023-05-10T11:57:00;2.80;;;2.60;;
32365;SDS011;18837;46.832;16.838;2023-05-10T12:05:26;3.07;;;2.77;;
32365;SDS011;18837;46.832;16.838;2023-05-10T12:07:52;2.70;;;2.50;;
32365;SDS011;18837;46.832;16.838;2023-05-10T12:10:23;2.70;;;2.50;;
32365;SDS011;18837;46.832;16.838;2023-05-10T12:12:51;3.47;;;2.83;;
32365;SDS011;18837;46.832;16.838;2023-05-10T12:17:45;3.43;;;2.53;;
32365;SDS011;18837;46.832;16.838;2023-05-10T12:20:19;2.77;;;2.57;;
32365;SDS011;18837;46.832;16.838;2023-05-10T12:22:46;2.77;;;2.57;;
32365;SDS011;18837;46.832;16.838;2023-05-10T12:25:17;2.57;;;2.37;;
32365;SDS011;18837;46.832;16.838;2023-05-10T12:27:51;3.53;;;2.90;;
32365;SDS011;18837;46.832;16.838;2023-05-10T12:30:25;2.20;;;2.10;;
32365;SDS011;18837;46.832;16.838;2023-05-10T12:32:53;3.13;;;2.57;;
32365;SDS011;18837;46.832;16.838;2023-05-10T12:41:27;3.40;;;2.50;;
32365;SDS011;18837;46.832;16.838;2023-05-10T12:43:52;3.10;;;2.80;;
32365;SDS011;18837;46.832;16.838;2023-05-10T12:46:18;2.77;;;2.57;;
32365;SDS011;18837;46.832;16.838;2023-05-10T12:48:44;3.27;;;2.97;;
32365;SDS011;18837;46.832;16.838;2023-05-10T12:51:11;3.23;;;3.03;;
32365;SDS011;18837;46.832;16.838;2023-05-10T12:53:49;3.97;;;3.23;;
32365;SDS011;18837;46.832;16.838;2023-05-10T12:56:15;2.80;;;2.60;;
32365;SDS011;18837;46.832;16.838;2023-05-10T12:58:40;3.10;;;2.90;;
32365;SDS011;18837;46.832;16.838;2023-05-10T13:01:06;3.10;;;2.90;;
32365;SDS011;18837;46.832;16.838;2023-05-10T13:03:33;3.13;;;2.93;;
32365;SDS011;18837;46.832;16.838;2023-05-10T13:05:59;2.90;;;2.70;;
32365;SDS011;18837;46.832;16.838;2023-05-10T13:14:35;3.93;;;2.90;;
32365;SDS011;18837;46.832;16.838;2023-05-10T13:17:01;2.87;;;2.67;;
32365;SDS011;18837;46.832;16.838;2023-05-10T13:19:27;2.97;;;2.77;;
32365;SDS011;18837;46.832;16.838;2023-05-10T13:21:52;3.17;;;2.87;;
32365;SDS011;18837;46.832;16.838;2023-05-10T13:24:18;3.00;;;2.70;;
32365;SDS011;18837;46.832;16.838;2023-05-10T13:26:44;2.70;;;2.50;;
32365;SDS011;18837;46.832;16.838;2023-05-10T13:29:13;3.00;;;2.70;;
32365;SDS011;18837;46.832;16.838;2023-05-10T13:31:43;2.40;;;2.20;;
32365;SDS011;18837;46.832;16.838;2023-05-10T13:34:08;2.40;;;2.03;;
32365;SDS011;18837;46.832;16.838;2023-05-10T13:36:34;2.73;;;2.30;;
32365;SDS011;18837;46.832;16.838;2023-05-10T13:39:00;2.50;;;2.30;;
32365;SDS011;18837;46.832;16.838;2023-05-10T13:41:28;3.40;;;2.63;;
32365;SDS011;18837;46.832;16.838;2023-05-10T13:44:06;2.80;;;2.30;;
32365;SDS011;18837;46.832;16.838;2023-05-10T13:49:49;2.60;;;2.40;;
32365;SDS011;18837;46.832;16.838;2023-05-10T13:52:15;2.30;;;2.10;;
32365;SDS011;18837;46.832;16.838;2023-05-10T13:54:43;2.67;;;2.47;;
32365;SDS011;18837;46.832;16.838;2023-05-10T13:57:09;2.97;;;2.60;;
32365;SDS011;18837;46.832;16.838;2023-05-10T13:59:37;2.43;;;2.20;;
32365;SDS011;18837;46.832;16.838;2023-05-10T14:02:03;2.63;;;2.27;;
32365;SDS011;18837;46.832;16.838;2023-05-10T14:04:29;3.50;;;2.10;;
32365;SDS011;18837;46.832;16.838;2023-05-10T14:06:55;2.70;;;2.50;;
32365;SDS011;18837;46.832;16.838;2023-05-10T14:09:21;2.43;;;2.30;;
32365;SDS011;18837;46.832;16.838;2023-05-10T14:11:47;2.50;;;2.30;;
32365;SDS011;18837;46.832;16.838;2023-05-10T14:14:13;2.70;;;2.20;;
32365;SDS011;18837;46.832;16.838;2023-05-10T14:16:42;3.03;;;2.43;;
32365;SDS011;18837;46.832;16.838;2023-05-10T14:22:11;3.30;;;3.00;;
32365;SDS011;18837;46.832;16.838;2023-05-10T14:24:37;3.30;;;2.40;;
32365;SDS011;18837;46.832;16.838;2023-05-10T14:27:03;3.67;;;2.50;;
32365;SDS011;18837;46.832;16.838;2023-05-10T14:29:29;2.33;;;2.13;;
32365;SDS011;18837;46.832;16.838;2023-05-10T14:31:55;2.40;;;2.20;;
32365;SDS011;18837;46.832;16.838;2023-05-10T14:34:20;2.97;;;2.53;;
32365;SDS011;18837;46.832;16.838;2023-05-10T14:36:52;2.70;;;2.13;;
32365;SDS011;18837;46.832;16.838;2023-05-10T14:39:18;2.37;;;2.17;;
32365;SDS011;18837;46.832;16.838;2023-05-10T14:41:44;2.30;;;2.10;;
32365;SDS011;18837;46.832;16.838;2023-05-10T14:44:10;2.80;;;2.60;;
32365;SDS011;18837;46.832;16.838;2023-05-10T14:46:36;2.30;;;2.20;;
32365;SDS011;18837;46.832;16.838;2023-05-10T14:49:03;2.50;;;2.30;;
32365;SDS011;18837;46.832;16.838;2023-05-10T14:51:29;2.30;;;2.10;;
32365;SDS011;18837;46.832;16.838;2023-05-10T14:54:07;2.67;;;2.47;;
32365;SDS011;18837;46.832;16.838;2023-05-10T14:57:03;3.33;;;2.20;;
32365;SDS011;18837;46.832;16.838;2023-05-10T14:59:29;2.70;;;2.43;;
32365;SDS011;18837;46.832;16.838;2023-05-10T15:01:55;2.30;;;2.10;;
32365;SDS011;18837;46.832;16.838;2023-05-10T15:04:20;2.30;;;2.17;;
32365;SDS011;18837;46.832;16.838;2023-05-10T15:06:46;2.10;;;2.00;;
32365;SDS011;18837;46.832;16.838;2023-05-10T15:09:12;2.03;;;1.83;;
32365;SDS011;18837;46.832;16.838;2023-05-10T15:11:48;2.30;;;2.20;;
32365;SDS011;18837;46.832;16.838;2023-05-10T15:14:13;2.10;;;2.00;;
32365;SDS011;18837;46.832;16.838;2023-05-10T15:16:39;3.03;;;2.43;;
32365;SDS011;18837;46.832;16.838;2023-05-10T15:19:05;2.10;;;1.93;;
32365;SDS011;18837;46.832;16.838;2023-05-10T15:21:30;2.33;;;2.13;;
32365;SDS011;18837;46.832;16.838;2023-05-10T15:24:02;2.10;;;2.00;;
32365;SDS011;18837;46.832;16.838;2023-05-10T15:26:28;2.30;;;2.10;;
32365;SDS011;18837;46.832;16.838;2023-05-10T15:32:03;2.63;;;2.20;;
32365;SDS011;18837;46.832;16.838;2023-05-10T15:34:29;2.60;;;2.40;;
32365;SDS011;18837;46.832;16.838;2023-05-10T15:36:55;2.43;;;2.23;;
32365;SDS011;18837;46.832;16.838;2023-05-10T15:39:22;2.47;;;2.27;;
32365;SDS011;18837;46.832;16.838;2023-05-10T15:41:48;2.60;;;2.00;;
32365;SDS011;18837;46.832;16.838;2023-05-10T15:44:14;2.00;;;1.90;;
32365;SDS011;18837;46.832;16.838;2023-05-10T15:46:55;2.40;;;2.20;;
32365;SDS011;18837;46.832;16.838;2023-05-10T15:49:21;3.20;;;2.30;;
32365;SDS011;18837;46.832;16.838;2023-05-10T15:51:47;2.13;;;2.03;;
32365;SDS011;18837;46.832;16.838;2023-05-10T15:54:13;2.43;;;2.23;;
32365;SDS011;18837;46.832;16.838;2023-05-10T15:56:39;2.20;;;2.03;;
32365;SDS011;18837;46.832;16.838;2023-05-10T15:59:05;2.33;;;2.13;;
32365;SDS011;18837;46.832;16.838;2023-05-10T16:08:05;2.83;;;2.33;;
32365;SDS011;18837;46.832;16.838;2023-05-10T16:10:31;2.53;;;2.33;;
32365;SDS011;18837;46.832;16.838;2023-05-10T16:12:57;4.00;;;2.80;;
32365;SDS011;18837;46.832;16.838;2023-05-10T16:15:23;2.50;;;2.30;;
32365;SDS011;18837;46.832;16.838;2023-05-10T16:17:48;2.30;;;2.20;;
32365;SDS011;18837;46.832;16.838;2023-05-10T16:20:14;2.37;;;2.17;;